createdAt,value
2022-09-07T00:03:59.716Z,0
2022-09-07T00:09:29.917Z,0
2022-09-07T00:15:18.566Z,0
2022-09-07T00:20:43.025Z,0
2022-09-07T00:26:15.128Z,0
2022-09-07T00:32:06.985Z,0
2022-09-07T00:37:35.733Z,0
2022-09-07T00:43:21.946Z,0
2022-09-07T00:48:32.039Z,0
2022-09-07T00:54:31.616Z,0
2022-09-07T00:59:57.586Z,0
2022-09-07T01:05:12.134Z,0
2022-09-07T01:10:54.954Z,2.4
2022-09-07T01:16:46.889Z,0
2022-09-07T01:22:20.975Z,0
2022-09-07T01:27:41.313Z,0
2022-09-07T01:33:00.956Z,0
2022-09-07T01:38:53.444Z,0
2022-09-07T01:44:32.081Z,3.6
2022-09-07T01:49:54.771Z,5.9
2022-09-07T01:55:24.413Z,3.6
2022-09-07T02:01:22.464Z,0
2022-09-07T02:06:29.093Z,0
2022-09-07T02:12:05.262Z,0
2022-09-07T02:17:51.957Z,0
2022-09-07T02:23:15.409Z,4.8
2022-09-07T02:28:48.893Z,3.6
2022-09-07T02:34:24.929Z,0
2022-09-07T02:40:03.287Z,7.2
2022-09-07T02:45:39.077Z,5.9
2022-09-07T02:51:16.969Z,0
2022-09-07T02:56:44.073Z,0
2022-09-07T03:02:34.984Z,0
2022-09-07T03:07:50.349Z,0
2022-09-07T03:13:33.477Z,2.4
2022-09-07T03:19:11.597Z,0
2022-09-07T03:24:50.599Z,0
2022-09-07T03:30:29.996Z,0
2022-09-07T03:36:05.895Z,0
2022-09-07T03:41:38.980Z,4.8
2022-09-07T03:47:01.469Z,2.4
2022-09-07T03:52:41.057Z,0
2022-09-07T03:58:00.974Z,0
2022-09-07T04:03:48.074Z,0
2022-09-07T04:09:08.288Z,0
2022-09-07T04:14:44.138Z,0
2022-09-07T04:20:14.264Z,0
2022-09-07T04:25:58.796Z,0
2022-09-07T04:31:27.812Z,0
2022-09-07T04:36:54.752Z,0
2022-09-07T04:42:27.366Z,0
2022-09-07T04:48:04.432Z,0
2022-09-07T04:53:57.642Z,0
2022-09-07T04:59:32.708Z,0
2022-09-07T05:05:08.789Z,0
2022-09-07T05:10:39.084Z,0
2022-09-07T05:16:14.459Z,0
2022-09-07T05:33:01.643Z,0
2022-09-07T06:06:19.176Z,0
2022-09-07T06:11:41.137Z,0
2022-09-07T06:23:11.959Z,0
2022-09-07T06:39:38.039Z,0
2022-09-07T06:45:35.250Z,0
2022-09-07T06:51:03.178Z,0
2022-09-07T06:56:36.441Z,0
2022-09-07T07:01:58.837Z,0
2022-09-07T07:07:55.409Z,0
2022-09-07T07:13:11.044Z,0
2022-09-07T07:19:06.529Z,0
2022-09-07T07:24:30.213Z,0
2022-09-07T07:30:11.782Z,0
2022-09-07T07:35:50.014Z,0
2022-09-07T07:46:59.556Z,0
2022-09-07T07:57:50.180Z,0
2022-09-07T08:03:52.449Z,0
2022-09-07T08:09:08.284Z,0
2022-09-07T08:14:59.442Z,0
2022-09-07T08:20:14.213Z,2.4
2022-09-07T08:26:06.392Z,0
2022-09-07T08:31:31.424Z,0
2022-09-07T08:37:02.977Z,0
2022-09-07T08:42:38.857Z,0
2022-09-07T08:48:28.818Z,0
2022-09-07T08:59:44.503Z,0
2022-09-07T09:05:17.307Z,0
2022-09-07T09:10:42.448Z,0
2022-09-07T09:16:27.134Z,0
2022-09-07T09:22:12.948Z,3.6
2022-09-07T09:27:46.332Z,3.6
2022-09-07T09:39:00.316Z,5.9
2022-09-07T09:56:03.680Z,4.8
2022-09-07T10:12:40.158Z,3.6
2022-09-07T12:33:55.155Z,8.4
2022-09-07T12:50:39.363Z,7.2
2022-09-07T12:56:38.411Z,8.4
2022-09-07T13:02:11.617Z,8.4
2022-09-07T13:07:50.368Z,10.7
2022-09-07T13:13:06.082Z,9.6
2022-09-07T13:18:59.194Z,10.7
2022-09-07T13:24:50.896Z,10.7
2022-09-07T13:29:55.117Z,10.7
2022-09-07T13:35:56.426Z,9.6
2022-09-07T13:41:26.663Z,7.2
2022-09-07T13:46:44.411Z,8.4
2022-09-07T13:52:32.171Z,8.4
2022-09-07T13:58:21.600Z,7.2
2022-09-07T14:03:57.974Z,8.4
2022-09-07T14:09:29.828Z,10.7
2022-09-07T14:15:08.379Z,8.4
2022-09-07T14:20:39.135Z,5.9
2022-09-07T14:26:22.801Z,2.4
2022-09-07T14:31:40.597Z,0
2022-09-07T14:37:29.546Z,0
2022-09-07T14:42:54.331Z,0
2022-09-07T14:48:47.931Z,0
2022-09-07T14:53:58.908Z,0
2022-09-07T14:59:33.757Z,0
2022-09-07T15:16:20.302Z,8.4
2022-09-07T15:33:15.464Z,7.2
2022-09-07T15:38:59.848Z,2.4
2022-09-07T16:18:22.150Z,4.8
2022-09-07T16:24:03.416Z,3.6
2022-09-07T16:29:14.215Z,0
2022-09-07T16:35:04.790Z,0
2022-09-07T16:40:39.320Z,0
2022-09-07T16:46:06.125Z,0
2022-09-07T16:51:39.661Z,0
2022-09-07T17:03:02.095Z,0
2022-09-07T17:08:37.295Z,0
2022-09-07T17:14:07.538Z,0
2022-09-07T17:19:31.784Z,0
2022-09-07T17:25:33.208Z,0
2022-09-07T17:30:46.672Z,3.6
2022-09-07T17:47:37.567Z,3.6
2022-09-07T17:53:02.755Z,5.9
2022-09-07T18:04:19.306Z,0
2022-09-07T18:09:49.941Z,0
2022-09-07T18:26:39.290Z,0
2022-09-07T18:37:45.531Z,3.6
